Time;durP1;ratioP1;P1;durP2;ratioP2;P2;SDS_P1;SDS_P2;PMS_P1;PMS_P2;Temp;Humidity;BMP_temperature;BMP_pressure;BME280_temperature;BME280_humidity;BME280_pressure;Samples;Min_cycle;Max_cycle;Signal;HPM_P1;HPM_P2
2021/09/17 00:01:21;;;;;;;10.53;9.53;;;13.20;99.90;;;;;;5139246;27;20183;-46
2021/09/17 00:03:46;;;;;;;11.77;10.67;;;13.20;99.90;;;;;;5137667;27;20163;-46
2021/09/17 00:06:12;;;;;;;11.60;10.50;;;13.20;99.90;;;;;;5138110;27;20186;-45
2021/09/17 00:08:38;;;;;;;10.00;9.00;;;13.20;99.90;;;;;;5139067;27;20171;-46
2021/09/17 00:11:06;;;;;;;10.25;9.35;;;13.10;99.90;;;;;;5138241;27;20275;-46
2021/09/17 00:13:35;;;;;;;10.38;9.48;;;13.10;99.90;;;;;;5138586;27;20577;-46
2021/09/17 00:16:01;;;;;;;13.30;9.37;;;13.10;99.90;;;;;;5138461;27;20183;-46
2021/09/17 00:18:26;;;;;;;9.83;9.03;;;13.10;99.90;;;;;;5139336;27;20429;-45
2021/09/17 00:20:52;;;;;;;11.30;10.30;;;13.10;99.90;;;;;;5138917;27;20519;-46
2021/09/17 00:23:18;;;;;;;12.00;9.60;;;13.10;99.90;;;;;;5139196;27;20629;-46
2021/09/17 00:25:43;;;;;;;11.97;10.87;;;13.10;99.90;;;;;;5139207;27;20183;-46
2021/09/17 00:28:09;;;;;;;11.73;10.60;;;13.10;99.90;;;;;;5120848;27;20186;-46
2021/09/17 00:30:35;;;;;;;12.50;10.57;;;13.10;99.90;;;;;;5138735;27;20191;-46
2021/09/17 00:33:00;;;;;;;10.15;9.25;;;13.10;99.90;;;;;;5120503;27;20218;-45
2021/09/17 00:35:26;;;;;;;10.80;9.53;;;13.20;99.90;;;;;;5119916;27;20179;-46
2021/09/17 00:37:52;;;;;;;10.67;9.63;;;13.20;99.90;;;;;;5138804;27;20235;-46
2021/09/17 00:40:18;;;;;;;10.87;8.87;;;13.20;99.90;;;;;;5138712;27;20657;-46
2021/09/17 00:42:44;;;;;;;10.50;9.47;;;13.20;99.90;;;;;;5138807;27;20419;-46
2021/09/17 00:45:11;;;;;;;9.57;8.57;;;13.30;99.90;;;;;;5138661;27;20704;-46
2021/09/17 00:47:38;;;;;;;9.47;8.67;;;13.30;99.90;;;;;;5138862;27;20830;-46
2021/09/17 00:50:04;;;;;;;9.67;8.73;;;13.30;99.90;;;;;;5138613;27;20830;-46
2021/09/17 00:52:30;;;;;;;10.17;9.27;;;13.30;99.90;;;;;;5138791;27;20464;-45
2021/09/17 00:54:56;;;;;;;9.77;8.87;;;13.30;99.90;;;;;;5138264;27;20457;-46
2021/09/17 00:57:22;;;;;;;11.47;10.40;;;13.30;99.90;;;;;;5120600;28;20479;-46
2021/09/17 00:59:48;;;;;;;11.03;9.93;;;13.40;99.90;;;;;;5138437;27;20177;-46
2021/09/17 01:02:13;;;;;;;14.13;11.30;;;13.40;99.90;;;;;;5138536;27;20171;-46
2021/09/17 01:04:40;;;;;;;11.57;10.47;;;13.40;99.90;;;;;;5138184;27;20190;-46
2021/09/17 01:07:06;;;;;;;10.30;9.40;;;13.40;99.90;;;;;;5120457;28;20549;-46
2021/09/17 01:09:32;;;;;;;11.03;9.83;;;13.40;99.90;;;;;;5138500;27;20421;-46
2021/09/17 01:12:03;;;;;;;10.70;9.57;;;13.40;99.90;;;;;;5120764;27;20223;-46
2021/09/17 01:14:34;;;;;;;12.00;10.80;;;13.40;99.90;;;;;;5138618;27;20474;-46
2021/09/17 01:17:01;;;;;;;10.67;9.67;;;13.40;99.90;;;;;;5138339;27;20424;-46
2021/09/17 01:19:26;;;;;;;10.30;9.40;;;13.40;99.90;;;;;;5138988;27;20794;-46
2021/09/17 01:21:59;;;;;;;11.97;10.53;;;13.50;99.90;;;;;;5138633;27;20569;-46
2021/09/17 01:27:49;;;;;;;10.00;9.00;;;13.50;99.90;;;;;;5137954;28;20453;-46
2021/09/17 01:30:17;;;;;;;10.50;9.53;;;13.50;99.90;;;;;;5120498;27;20495;-46
2021/09/17 01:32:42;;;;;;;10.53;9.63;;;13.50;99.90;;;;;;5138047;28;20475;-46
2021/09/17 01:35:10;;;;;;;10.50;9.50;;;13.50;99.90;;;;;;5138274;27;20412;-46
2021/09/17 01:37:36;;;;;;;10.20;9.20;;;13.50;99.90;;;;;;5138151;28;20172;-46
2021/09/17 01:40:04;;;;;;;10.57;9.57;;;13.50;99.90;;;;;;5138027;27;20427;-46
2021/09/17 01:42:29;;;;;;;10.10;9.10;;;13.60;99.90;;;;;;5134044;27;20183;-46
2021/09/17 01:44:55;;;;;;;11.20;10.20;;;13.60;99.90;;;;;;5138124;27;20834;-45
2021/09/17 01:47:21;;;;;;;11.00;10.00;;;13.60;99.90;;;;;;5138533;27;20182;-46
2021/09/17 01:49:46;;;;;;;11.43;9.57;;;13.60;99.90;;;;;;5136364;27;20190;-46
2021/09/17 01:52:12;;;;;;;10.00;9.00;;;13.60;99.90;;;;;;5141591;27;20483;-46
2021/09/17 01:54:38;;;;;;;10.50;9.60;;;13.60;99.90;;;;;;5141948;27;20618;-46
2021/09/17 01:57:05;;;;;;;11.80;9.13;;;13.60;99.90;;;;;;5123882;27;20432;-46
2021/09/17 01:59:30;;;;;;;10.93;9.97;;;13.60;99.90;;;;;;5141717;27;20243;-46
2021/09/17 02:01:57;;;;;;;9.50;8.70;;;13.60;99.90;;;;;;5141821;27;20449;-46
2021/09/17 02:04:23;;;;;;;10.70;9.70;;;13.60;99.90;;;;;;5141764;27;20485;-46
2021/09/17 02:06:48;;;;;;;12.10;10.47;;;13.60;99.90;;;;;;5141553;27;20171;-46
2021/09/17 02:09:14;;;;;;;11.77;10.17;;;13.60;99.90;;;;;;5141796;27;20187;-46
2021/09/17 02:11:40;;;;;;;10.70;9.70;;;13.60;99.90;;;;;;5141632;27;20217;-46
2021/09/17 02:14:06;;;;;;;10.33;9.43;;;13.60;99.90;;;;;;5141648;27;20178;-46
2021/09/17 02:16:31;;;;;;;11.60;10.50;;;13.70;99.90;;;;;;5141941;27;20179;-46
2021/09/17 02:18:57;;;;;;;11.53;10.33;;;13.70;99.90;;;;;;5141680;27;20171;-46
2021/09/17 02:21:23;;;;;;;10.80;9.80;;;13.70;99.90;;;;;;5141200;27;20183;-46
2021/09/17 02:23:49;;;;;;;11.07;9.87;;;13.60;99.90;;;;;;5122943;27;20182;-46
2021/09/17 02:26:16;;;;;;;11.63;10.53;;;13.60;99.90;;;;;;5141739;27;20488;-46
2021/09/17 02:28:42;;;;;;;10.90;9.80;;;13.70;99.90;;;;;;5141316;27;20460;-46
2021/09/17 02:31:08;;;;;;;12.10;9.87;;;13.70;99.90;;;;;;5123763;27;20464;-46
2021/09/17 02:33:33;;;;;;;11.47;10.47;;;13.60;99.90;;;;;;5141286;27;20431;-46
2021/09/17 02:35:59;;;;;;;11.30;10.03;;;13.60;99.90;;;;;;5140953;27;20183;-46
2021/09/17 02:38:25;;;;;;;10.40;9.50;;;13.60;99.90;;;;;;5138434;27;20174;-46
2021/09/17 02:40:52;;;;;;;11.97;10.87;;;13.70;99.90;;;;;;5128802;27;20175;-46
2021/09/17 02:43:18;;;;;;;11.13;10.23;;;13.60;99.90;;;;;;5138430;27;20448;-46
2021/09/17 02:45:43;;;;;;;10.27;9.27;;;13.70;99.90;;;;;;5120858;28;20445;-46
2021/09/17 02:48:09;;;;;;;11.40;10.37;;;13.70;99.90;;;;;;5120857;28;20264;-46
2021/09/17 02:50:35;;;;;;;11.60;10.50;;;13.70;99.90;;;;;;5120173;28;20266;-46
2021/09/17 02:53:01;;;;;;;10.30;9.30;;;13.70;99.90;;;;;;5120598;28;20238;-46
2021/09/17 02:55:26;;;;;;;11.37;10.27;;;13.80;99.90;;;;;;5119876;28;20363;-46
2021/09/17 02:57:52;;;;;;;10.40;9.30;;;13.80;99.90;;;;;;5119254;28;20191;-46
2021/09/17 03:00:18;;;;;;;10.50;9.37;;;13.80;99.90;;;;;;5119949;28;20203;-46
2021/09/17 03:02:45;;;;;;;10.83;9.80;;;13.80;99.90;;;;;;5120070;28;20171;-46
2021/09/17 03:05:10;;;;;;;11.67;10.53;;;13.80;99.90;;;;;;5118880;28;20184;-46
2021/09/17 03:07:36;;;;;;;12.00;10.90;;;13.80;99.90;;;;;;5120079;28;20517;-45
2021/09/17 03:10:03;;;;;;;11.27;10.27;;;13.80;99.90;;;;;;5119713;28;20670;-45
2021/09/17 03:12:29;;;;;;;11.27;10.20;;;13.80;99.90;;;;;;5119805;28;20219;-45
2021/09/17 03:14:55;;;;;;;11.20;10.13;;;13.80;99.90;;;;;;5120092;28;20696;-45
2021/09/17 03:17:20;;;;;;;10.90;9.90;;;13.80;99.90;;;;;;5119345;28;20462;-45
2021/09/17 03:19:46;;;;;;;11.30;10.20;;;13.80;99.90;;;;;;5119627;28;20522;-45
2021/09/17 03:22:11;;;;;;;10.90;9.77;;;13.80;99.90;;;;;;5119599;28;20454;-46
2021/09/17 03:24:37;;;;;;;10.97;9.97;;;13.70;99.90;;;;;;5119844;28;20384;-45
2021/09/17 03:27:03;;;;;;;10.20;9.30;;;13.70;99.90;;;;;;5119438;28;20247;-45
2021/09/17 03:29:29;;;;;;;10.77;9.77;;;13.70;99.90;;;;;;5119462;28;20190;-45
2021/09/17 03:31:54;;;;;;;11.63;10.53;;;13.70;99.90;;;;;;5118911;28;20453;-45
2021/09/17 03:34:20;;;;;;;11.70;10.70;;;13.70;99.90;;;;;;5119372;28;20176;-45
2021/09/17 03:36:46;;;;;;;11.60;10.40;;;13.60;99.90;;;;;;5119329;28;20164;-45
2021/09/17 03:39:13;;;;;;;11.80;10.70;;;13.60;99.90;;;;;;5118016;28;20180;-45
2021/09/17 03:41:43;;;;;;;12.23;11.00;;;13.60;99.90;;;;;;5118016;28;20574;-45
2021/09/17 03:44:09;;;;;;;11.77;10.77;;;13.60;99.90;;;;;;5117296;28;20424;-45
2021/09/17 03:46:34;;;;;;;9.33;8.53;;;13.60;99.90;;;;;;5118117;28;21002;-45
2021/09/17 03:49:00;;;;;;;11.10;10.10;;;13.70;99.90;;;;;;5118347;28;20171;-45
2021/09/17 03:51:26;;;;;;;11.00;9.90;;;13.70;99.90;;;;;;5117860;28;20192;-46
2021/09/17 03:53:51;;;;;;;13.77;10.33;;;13.70;99.90;;;;;;5118649;28;20172;-45
2021/09/17 03:56:18;;;;;;;10.93;10.00;;;13.70;99.90;;;;;;5118297;28;20652;-45
2021/09/17 03:58:43;;;;;;;9.70;8.80;;;13.70;99.90;;;;;;5118994;28;20168;-46
2021/09/17 04:01:09;;;;;;;10.57;9.57;;;13.80;99.90;;;;;;5118920;28;20423;-45
2021/09/17 04:03:34;;;;;;;10.23;9.33;;;13.80;99.90;;;;;;5118925;28;20437;-46
2021/09/17 04:06:00;;;;;;;10.37;9.53;;;13.80;99.90;;;;;;5119176;28;20175;-46
2021/09/17 04:08:26;;;;;;;11.17;10.00;;;13.80;99.90;;;;;;5118606;28;20426;-47
2021/09/17 04:10:51;;;;;;;10.30;9.30;;;13.80;99.90;;;;;;5118322;28;20183;-46
2021/09/17 04:13:17;;;;;;;10.50;9.60;;;13.80;99.90;;;;;;5118750;28;20413;-46
2021/09/17 04:15:43;;;;;;;9.60;8.80;;;13.80;99.90;;;;;;5118688;28;20172;-46
2021/09/17 04:18:08;;;;;;;10.93;10.03;;;13.80;99.90;;;;;;5118541;28;20245;-46
2021/09/17 04:20:35;;;;;;;11.45;9.30;;;13.80;99.90;;;;;;5117273;28;20176;-46
2021/09/17 04:23:00;;;;;;;11.70;9.93;;;13.80;99.90;;;;;;5115865;28;20180;-47
2021/09/17 04:25:28;;;;;;;10.80;9.43;;;13.80;99.90;;;;;;5114434;28;20402;-46
2021/09/17 04:27:53;;;;;;;10.67;9.57;;;13.80;99.90;;;;;;5115721;28;20258;-46
2021/09/17 04:30:19;;;;;;;11.33;10.27;;;13.80;99.90;;;;;;5116150;28;20493;-46
2021/09/17 04:32:45;;;;;;;10.80;9.80;;;13.80;99.90;;;;;;5115918;28;20467;-46
2021/09/17 04:35:12;;;;;;;10.80;9.53;;;13.80;99.90;;;;;;5114831;28;20236;-46
2021/09/17 04:37:42;;;;;;;10.40;9.37;;;13.80;99.90;;;;;;5115408;28;20491;-46
2021/09/17 04:40:10;;;;;;;10.10;9.20;;;13.80;99.90;;;;;;5115560;28;20413;-46
2021/09/17 04:42:36;;;;;;;10.80;9.70;;;13.90;99.90;;;;;;5096859;28;20441;-46
2021/09/17 04:45:02;;;;;;;10.83;9.87;;;13.90;99.90;;;;;;5114429;28;20689;-46
2021/09/17 04:47:28;;;;;;;10.90;9.90;;;13.90;99.90;;;;;;5114110;28;20499;-46
2021/09/17 04:49:53;;;;;;;11.50;10.50;;;13.90;99.90;;;;;;5114335;28;20456;-46
2021/09/17 04:52:21;;;;;;;11.03;10.13;;;13.90;99.90;;;;;;5113547;28;20323;-46
2021/09/17 04:54:47;;;;;;;11.20;10.20;;;13.90;99.90;;;;;;5112811;28;20706;-46
2021/09/17 04:57:13;;;;;;;9.50;8.60;;;13.90;99.90;;;;;;5111832;28;20669;-46
2021/09/17 04:59:39;;;;;;;11.87;9.03;;;13.90;99.90;;;;;;5111117;28;20448;-46
2021/09/17 05:02:04;;;;;;;10.53;9.53;;;13.90;99.90;;;;;;5111884;28;20487;-46
2021/09/17 05:04:30;;;;;;;9.80;8.80;;;13.90;99.90;;;;;;5111925;28;20176;-46
2021/09/17 05:06:56;;;;;;;10.13;9.13;;;13.90;99.90;;;;;;5094436;28;20247;-46
2021/09/17 05:09:21;;;;;;;9.33;8.50;;;13.90;99.90;;;;;;5113753;28;20421;-47
2021/09/17 05:11:47;;;;;;;9.43;8.63;;;13.90;99.90;;;;;;5130912;27;20452;-47
2021/09/17 05:14:13;;;;;;;9.00;8.10;;;13.90;99.90;;;;;;5132515;27;20464;-47
2021/09/17 05:16:38;;;;;;;10.80;9.70;;;13.90;99.90;;;;;;5133621;28;20178;-47
2021/09/17 05:19:04;;;;;;;11.50;9.07;;;13.90;99.90;;;;;;5133758;27;20588;-47
2021/09/17 05:21:30;;;;;;;10.20;9.30;;;13.90;99.90;;;;;;5138863;27;20576;-47
2021/09/17 05:23:55;;;;;;;10.37;9.47;;;13.90;99.90;;;;;;5140785;27;20212;-47
2021/09/17 05:26:21;;;;;;;9.33;8.53;;;13.90;99.90;;;;;;5140658;27;20711;-47
2021/09/17 05:28:47;;;;;;;9.83;8.93;;;14.00;99.90;;;;;;5141105;27;20186;-47
2021/09/17 05:31:13;;;;;;;10.30;9.40;;;14.00;99.90;;;;;;5139205;27;20889;-47
2021/09/17 05:33:39;;;;;;;9.50;8.60;;;14.00;99.90;;;;;;5140865;27;20181;-47
2021/09/17 05:36:06;;;;;;;12.60;9.63;;;14.00;99.90;;;;;;5141241;27;20194;-47
2021/09/17 05:38:32;;;;;;;13.15;9.40;;;14.00;99.90;;;;;;5139968;27;20746;-47
2021/09/17 05:40:58;;;;;;;10.00;9.10;;;13.90;99.90;;;;;;5136321;27;20254;-47
2021/09/17 05:43:24;;;;;;;10.50;9.60;;;13.90;99.90;;;;;;5135770;27;20515;-46
2021/09/17 05:45:49;;;;;;;11.90;9.27;;;14.00;99.90;;;;;;5136245;27;20457;-46
2021/09/17 05:48:15;;;;;;;10.90;8.90;;;14.00;99.90;;;;;;5135135;27;20179;-47
2021/09/17 05:50:41;;;;;;;11.00;10.03;;;14.10;99.90;;;;;;5137400;27;20254;-47
2021/09/17 05:53:06;;;;;;;10.07;8.90;;;14.20;99.90;;;;;;5138695;27;20207;-46
2021/09/17 05:55:32;;;;;;;9.90;8.87;;;14.30;99.90;;;;;;5139349;27;20544;-47
2021/09/17 05:57:58;;;;;;;10.50;9.40;;;14.30;99.90;;;;;;5104215;27;20190;-46
2021/09/17 06:00:24;;;;;;;11.17;9.30;;;14.40;99.90;;;;;;5140138;27;20416;-47
2021/09/17 06:02:50;;;;;;;8.83;8.03;;;14.50;99.90;;;;;;5139139;27;20448;-47
2021/09/17 06:05:16;;;;;;;9.80;8.90;;;14.60;99.90;;;;;;5139477;27;20236;-46
2021/09/17 06:07:45;;;;;;;9.77;8.97;;;14.70;99.90;;;;;;5138642;27;20174;-47
2021/09/17 06:10:13;;;;;;;9.50;8.60;;;14.80;99.90;;;;;;5136521;27;20580;-47
2021/09/17 06:12:39;;;;;;;9.67;8.80;;;14.80;99.90;;;;;;5136590;27;20460;-47
2021/09/17 06:15:06;;;;;;;10.50;9.50;;;14.80;99.90;;;;;;5138216;27;20567;-46
2021/09/17 06:17:31;;;;;;;9.85;8.90;;;14.80;99.90;;;;;;5138591;27;20522;-46
2021/09/17 06:19:57;;;;;;;9.85;8.45;;;14.90;99.90;;;;;;5137493;27;20273;-46
2021/09/17 06:22:23;;;;;;;11.73;9.00;;;14.90;99.90;;;;;;5137697;27;20298;-46
2021/09/17 06:24:48;;;;;;;13.53;9.77;;;15.00;99.90;;;;;;5137692;27;20206;-49
2021/09/17 06:27:15;;;;;;;9.67;8.83;;;15.00;99.90;;;;;;5138529;27;20174;-47
2021/09/17 06:29:40;;;;;;;10.27;9.40;;;15.10;99.90;;;;;;5139328;27;20171;-47
2021/09/17 06:32:06;;;;;;;10.90;9.93;;;15.10;99.90;;;;;;5138185;27;20539;-46
2021/09/17 06:34:34;;;;;;;9.85;8.95;;;15.10;99.90;;;;;;5138702;27;20468;-46
2021/09/17 06:37:00;;;;;;;10.60;9.70;;;15.10;99.90;;;;;;5139525;27;20578;-46
2021/09/17 06:39:26;;;;;;;10.30;9.40;;;15.10;99.90;;;;;;5138751;27;20500;-46
2021/09/17 06:41:52;;;;;;;9.63;8.73;;;15.20;99.90;;;;;;5137054;27;20176;-46
2021/09/17 06:44:18;;;;;;;11.20;10.20;;;15.30;99.90;;;;;;5138590;27;20638;-46
2021/09/17 06:46:44;;;;;;;10.77;9.60;;;15.30;99.90;;;;;;5139443;27;20417;-46
2021/09/17 06:49:10;;;;;;;11.63;10.52;;;15.40;99.90;;;;;;5137625;27;20514;-46
2021/09/17 06:51:36;;;;;;;9.70;8.90;;;15.50;99.90;;;;;;5138065;27;20195;-46
2021/09/17 06:54:02;;;;;;;10.97;9.90;;;15.50;99.90;;;;;;5138412;27;20417;-46
2021/09/17 06:56:27;;;;;;;10.90;9.90;;;15.60;99.90;;;;;;5139575;27;20219;-46
2021/09/17 06:58:53;;;;;;;10.73;9.70;;;15.60;99.90;;;;;;5138059;27;20569;-46
2021/09/17 07:01:21;;;;;;;10.30;9.40;;;15.70;99.90;;;;;;5138546;27;20190;-46
2021/09/17 07:03:47;;;;;;;11.43;9.60;;;15.80;99.90;;;;;;5138850;27;20591;-46
2021/09/17 07:06:12;;;;;;;12.13;11.00;;;15.90;99.90;;;;;;5139121;27;20416;-46
2021/09/17 07:08:38;;;;;;;10.90;9.90;;;16.00;99.90;;;;;;5137718;27;20179;-46
2021/09/17 07:11:04;;;;;;;11.13;10.20;;;16.10;99.90;;;;;;5138570;27;20191;-46
2021/09/17 07:13:29;;;;;;;11.43;10.23;;;16.20;99.90;;;;;;5138900;27;20167;-46
2021/09/17 07:15:55;;;;;;;11.30;10.30;;;16.20;99.90;;;;;;5138963;27;20214;-46
2021/09/17 07:18:21;;;;;;;11.20;10.20;;;16.20;99.90;;;;;;5139574;27;20206;-46
2021/09/17 07:20:47;;;;;;;11.17;10.07;;;16.30;99.90;;;;;;5138479;27;20716;-47
2021/09/17 07:23:13;;;;;;;12.25;11.13;;;16.40;99.90;;;;;;5138155;27;20694;-46
2021/09/17 07:25:39;;;;;;;10.80;9.67;;;16.50;99.90;;;;;;5136462;27;20197;-46
2021/09/17 07:28:05;;;;;;;10.90;9.90;;;16.50;99.90;;;;;;5138826;27;20210;-46
2021/09/17 07:30:31;;;;;;;10.83;9.83;;;16.70;99.90;;;;;;5139269;27;20857;-46
2021/09/17 07:32:57;;;;;;;9.83;8.93;;;16.90;99.90;;;;;;5139598;27;20268;-47
2021/09/17 07:35:23;;;;;;;10.50;9.33;;;17.00;99.90;;;;;;5103604;27;20460;-46
2021/09/17 07:37:49;;;;;;;11.40;10.23;;;17.20;99.90;;;;;;5138154;27;20428;-46
2021/09/17 07:40:16;;;;;;;10.63;9.73;;;17.40;99.90;;;;;;5137380;27;20501;-46
2021/09/17 07:42:43;;;;;;;11.70;10.60;;;17.60;99.70;;;;;;5136543;27;20456;-46
2021/09/17 07:45:10;;;;;;;14.53;13.13;;;17.70;99.40;;;;;;5137897;27;20371;-46
2021/09/17 07:47:36;;;;;;;12.97;11.77;;;17.90;98.50;;;;;;5119808;27;20416;-46
2021/09/17 07:50:04;;;;;;;13.97;12.67;;;17.90;98.10;;;;;;5120927;27;20447;-46
2021/09/17 07:52:30;;;;;;;14.27;12.90;;;18.00;97.60;;;;;;5138500;27;20951;-46
2021/09/17 07:54:56;;;;;;;14.10;12.70;;;18.00;96.60;;;;;;5139072;27;20360;-46
2021/09/17 07:57:21;;;;;;;13.53;12.30;;;18.00;96.70;;;;;;5137653;27;20564;-46
2021/09/17 07:59:47;;;;;;;16.57;14.87;;;18.00;97.10;;;;;;5138097;27;20186;-46
2021/09/17 08:02:13;;;;;;;13.50;12.10;;;18.00;96.20;;;;;;5138401;27;20175;-46
2021/09/17 08:04:38;;;;;;;13.60;12.30;;;18.10;96.90;;;;;;5137894;27;20526;-46
2021/09/17 08:07:08;;;;;;;14.13;12.87;;;18.20;96.60;;;;;;5138673;27;20167;-46
2021/09/17 08:09:33;;;;;;;12.93;11.77;;;18.40;95.90;;;;;;5138758;27;20187;-46
2021/09/17 08:11:59;;;;;;;12.33;11.13;;;18.60;96.20;;;;;;5137121;27;20452;-46
2021/09/17 08:14:26;;;;;;;10.63;9.60;;;18.70;95.80;;;;;;5135926;27;20501;-46
2021/09/17 08:16:51;;;;;;;13.90;11.63;;;19.00;95.90;;;;;;5136237;27;20408;-46
2021/09/17 08:19:17;;;;;;;10.60;9.70;;;19.10;94.80;;;;;;5136484;27;20490;-46
2021/09/17 08:21:43;;;;;;;11.93;10.73;;;19.20;94.70;;;;;;5136091;27;20416;-46
2021/09/17 08:24:16;;;;;;;10.60;9.60;;;19.30;94.30;;;;;;5136675;27;20462;-46
2021/09/17 08:26:47;;;;;;;10.82;9.63;;;19.30;93.90;;;;;;5137254;27;20190;-46
2021/09/17 08:29:14;;;;;;;9.30;8.40;;;19.40;93.20;;;;;;5138274;27;20187;-46
2021/09/17 08:31:40;;;;;;;12.27;11.00;;;19.50;93.20;;;;;;5138487;27;20524;-46
2021/09/17 08:34:06;;;;;;;13.05;11.82;;;19.60;92.20;;;;;;5137188;27;20420;-46
2021/09/17 08:36:33;;;;;;;12.10;11.00;;;19.60;92.10;;;;;;5137328;27;20213;-46
2021/09/17 08:38:59;;;;;;;10.90;9.90;;;19.50;92.00;;;;;;5136860;27;20409;-47
2021/09/17 08:41:25;;;;;;;12.13;11.03;;;19.60;92.50;;;;;;5137011;27;20418;-46
2021/09/17 08:43:52;;;;;;;12.70;11.13;;;19.70;92.40;;;;;;5136659;27;20796;-46
2021/09/17 08:46:18;;;;;;;10.30;9.30;;;19.90;92.40;;;;;;5136929;27;20706;-46
2021/09/17 08:48:45;;;;;;;13.27;11.97;;;20.10;92.50;;;;;;5118749;27;20553;-47
2021/09/17 08:51:11;;;;;;;12.07;10.97;;;20.40;91.40;;;;;;5135635;27;20440;-47
2021/09/17 08:53:37;;;;;;;11.23;10.23;;;20.50;90.80;;;;;;5135419;27;20473;-47
2021/09/17 08:56:07;;;;;;;13.30;12.07;;;20.60;91.00;;;;;;5134912;27;20223;-46
2021/09/17 08:58:34;;;;;;;13.03;11.87;;;20.80;90.00;;;;;;5136638;27;20179;-47
2021/09/17 09:01:00;;;;;;;14.43;13.13;;;20.90;88.20;;;;;;5119112;27;20474;-47
2021/09/17 09:03:32;;;;;;;10.85;9.85;;;20.90;88.30;;;;;;5117661;28;20420;-47
2021/09/17 09:06:12;;;;;;;12.23;10.93;;;20.70;88.90;;;;;;5135146;28;20408;-46
2021/09/17 09:08:40;;;;;;;12.60;11.35;;;20.70;88.40;;;;;;5135731;27;20420;-47
2021/09/17 09:11:25;;;;;;;11.10;10.20;;;20.80;88.00;;;;;;5136381;27;20198;-47
2021/09/17 09:14:11;;;;;;;11.90;10.90;;;20.90;87.90;;;;;;5135252;27;20174;-46
2021/09/17 09:16:42;;;;;;;11.47;10.40;;;20.90;85.90;;;;;;5134807;28;20175;-46
2021/09/17 09:19:28;;;;;;;11.43;10.43;;;20.90;87.50;;;;;;5135134;27;20519;-46
2021/09/17 09:22:09;;;;;;;10.53;9.60;;;21.10;87.40;;;;;;5135534;27;20449;-46
2021/09/17 09:24:42;;;;;;;8.70;7.93;;;21.30;85.90;;;;;;5135045;27;20426;-47
2021/09/17 09:27:20;;;;;;;11.57;8.27;;;21.40;84.60;;;;;;5134080;27;20203;-47
2021/09/17 09:29:53;;;;;;;6.53;5.87;;;21.50;83.40;;;;;;5135195;27;20822;-47
2021/09/17 09:32:35;;;;;;;7.40;6.77;;;21.80;83.90;;;;;;5135507;27;20469;-47
2021/09/17 09:35:04;;;;;;;7.80;7.20;;;22.40;81.80;;;;;;5136130;28;20794;-46
2021/09/17 09:37:32;;;;;;;7.73;7.13;;;22.50;80.20;;;;;;5134151;28;20167;-47
2021/09/17 09:40:04;;;;;;;6.50;6.00;;;22.70;76.50;;;;;;5134364;27;20716;-47
2021/09/17 09:42:35;;;;;;;6.30;5.80;;;22.90;74.70;;;;;;5132509;27;20522;-47
2021/09/17 09:45:20;;;;;;;6.67;6.07;;;23.10;75.40;;;;;;5133698;27;20415;-47
2021/09/17 09:47:56;;;;;;;7.60;6.90;;;23.50;74.40;;;;;;5132936;28;20416;-47
2021/09/17 09:50:24;;;;;;;4.70;4.33;;;24.10;72.00;;;;;;5133052;28;20431;-47
2021/09/17 09:53:00;;;;;;;6.53;6.03;;;24.30;67.90;;;;;;5132556;27;20479;-47
2021/09/17 09:55:25;;;;;;;6.10;5.60;;;24.50;64.00;;;;;;5133588;27;20464;-47
2021/09/17 09:57:52;;;;;;;6.27;5.77;;;24.80;65.40;;;;;;5114635;28;20703;-47
2021/09/17 10:00:18;;;;;;;7.37;6.73;;;24.70;64.70;;;;;;5114179;28;20179;-46
2021/09/17 10:02:44;;;;;;;6.10;5.60;;;24.80;63.90;;;;;;5132200;27;20468;-47
2021/09/17 10:05:12;;;;;;;4.10;3.73;;;25.50;63.00;;;;;;5132252;28;20425;-47
2021/09/17 10:07:39;;;;;;;4.82;4.40;;;25.90;59.40;;;;;;5136179;27;20959;-47
2021/09/17 10:10:08;;;;;;;4.57;4.10;;;26.00;58.40;;;;;;5138130;27;20206;-47
2021/09/17 10:12:34;;;;;;;7.43;6.80;;;26.10;59.10;;;;;;5138909;27;20468;-47
2021/09/17 10:15:00;;;;;;;6.53;5.93;;;26.20;58.80;;;;;;5138638;27;20300;-47
2021/09/17 10:17:28;;;;;;;6.70;6.20;;;26.30;59.20;;;;;;5119266;27;20522;-47
2021/09/17 10:19:55;;;;;;;5.60;5.20;;;26.30;57.70;;;;;;5136534;27;20427;-47
2021/09/17 10:22:32;;;;;;;4.03;3.73;;;25.70;58.40;;;;;;5137116;27;20876;-47
2021/09/17 10:25:27;;;;;;;5.23;4.73;;;26.30;59.00;;;;;;5138017;27;20562;-47
2021/09/17 10:28:10;;;;;;;6.03;5.53;;;26.80;57.30;;;;;;5085107;27;20486;-47
2021/09/17 10:30:39;;;;;;;5.07;4.67;;;26.60;56.40;;;;;;5134911;27;20814;-47
2021/09/17 10:33:24;;;;;;;4.87;4.37;;;26.30;57.20;;;;;;5135502;27;20464;-47
2021/09/17 10:35:50;;;;;;;5.13;4.63;;;26.00;56.00;;;;;;5136034;27;20409;-47
2021/09/17 10:38:19;;;;;;;5.07;4.40;;;25.70;56.30;;;;;;5136271;27;20484;-47
2021/09/17 10:41:01;;;;;;;3.60;3.30;;;25.10;56.40;;;;;;5137303;27;20424;-47
2021/09/17 10:44:00;;;;;;;3.20;2.97;;;24.70;56.10;;;;;;5137800;27;20412;-43
2021/09/17 10:46:32;;;;;;;4.00;3.40;;;24.30;56.30;;;;;;5109069;27;20724;-42
2021/09/17 10:48:58;;;;;;;4.30;3.90;;;24.00;57.20;;;;;;5138478;27;20890;-40
2021/09/17 10:51:36;;;;;;;4.53;4.17;;;23.70;55.70;;;;;;5119320;27;20474;-41
2021/09/17 10:54:05;;;;;;;3.97;3.60;;;23.50;56.90;;;;;;5137059;27;20427;-41
2021/09/17 10:56:49;;;;;;;3.20;3.00;;;23.20;57.00;;;;;;5117777;27;20461;-42
2021/09/17 10:59:25;;;;;;;3.00;2.80;;;23.00;56.20;;;;;;5136591;27;20704;-44
2021/09/17 11:02:00;;;;;;;2.83;2.50;;;22.80;55.90;;;;;;5118360;27;20424;-40
2021/09/17 11:04:28;;;;;;;3.63;3.37;;;22.80;54.40;;;;;;5135872;27;20667;-40
2021/09/17 11:06:56;;;;;;;2.90;2.70;;;22.80;55.30;;;;;;5136468;27;20443;-41
2021/09/17 11:09:45;;;;;;;3.10;2.80;;;22.90;55.60;;;;;;5135798;27;20688;-41
2021/09/17 11:12:25;;;;;;;2.90;2.60;;;23.00;55.50;;;;;;5136920;27;20460;-42
2021/09/17 11:14:58;;;;;;;3.10;2.80;;;23.00;54.80;;;;;;5137070;27;20814;-42
2021/09/17 11:17:48;;;;;;;3.43;3.13;;;22.90;55.30;;;;;;5138664;27;20409;-40
2021/09/17 11:20:19;;;;;;;3.40;2.30;;;22.80;54.00;;;;;;5125325;27;20443;-40
2021/09/17 11:22:57;;;;;;;2.83;2.63;;;22.70;53.90;;;;;;5137525;27;20417;-39
2021/09/17 11:25:33;;;;;;;3.20;2.80;;;22.60;53.60;;;;;;5139174;27;20417;-39
2021/09/17 11:28:00;;;;;;;3.40;2.87;;;22.50;55.20;;;;;;5136016;27;20408;-39
2021/09/17 11:30:27;;;;;;;3.67;3.37;;;22.50;56.50;;;;;;5136956;27;20412;-39
2021/09/17 11:32:54;;;;;;;2.93;2.73;;;22.60;58.00;;;;;;5135563;27;20825;-39
2021/09/17 11:35:20;;;;;;;2.70;2.50;;;22.60;58.60;;;;;;5136145;27;20508;-42
2021/09/17 11:37:57;;;;;;;3.43;3.13;;;22.70;59.00;;;;;;5135577;27;20428;-40
2021/09/17 11:40:27;;;;;;;3.90;2.17;;;22.70;59.40;;;;;;5133892;27;20416;-39
2021/09/17 11:42:54;;;;;;;2.90;2.70;;;22.80;59.00;;;;;;5135019;27;20417;-39
2021/09/17 11:45:21;;;;;;;3.03;2.83;;;22.80;59.10;;;;;;5135978;27;20762;-39
2021/09/17 11:47:49;;;;;;;3.00;2.60;;;22.80;59.60;;;;;;5136141;27;20440;-41
2021/09/17 11:50:17;;;;;;;3.23;3.03;;;22.70;57.90;;;;;;5136793;27;20592;-40
2021/09/17 11:52:49;;;;;;;3.93;2.93;;;22.60;58.70;;;;;;5137941;27;20712;-41
2021/09/17 11:55:17;;;;;;;3.23;2.87;;;22.60;59.80;;;;;;5119814;27;20758;-42
2021/09/17 11:57:45;;;;;;;3.23;3.03;;;22.50;59.40;;;;;;5136972;27;20547;-39
2021/09/17 12:00:19;;;;;;;3.30;3.00;;;22.50;59.70;;;;;;5137045;27;20412;-40
2021/09/17 12:02:47;;;;;;;3.00;2.70;;;22.50;59.90;;;;;;5116631;27;20810;-38
2021/09/17 12:05:15;;;;;;;3.57;3.27;;;22.50;60.00;;;;;;5116783;27;20443;-40
2021/09/17 12:07:42;;;;;;;5.70;3.23;;;22.50;60.70;;;;;;5135853;27;20423;-42
2021/09/17 12:10:10;;;;;;;3.10;2.80;;;22.60;61.00;;;;;;5118323;27;20592;-40
2021/09/17 12:12:38;;;;;;;6.23;3.20;;;22.60;62.10;;;;;;5117074;27;20511;-42
2021/09/17 12:15:05;;;;;;;5.63;3.13;;;22.70;62.20;;;;;;5132137;27;20416;-42
2021/09/17 12:17:31;;;;;;;3.80;3.50;;;22.80;59.10;;;;;;5133329;27;20413;-41
2021/09/17 12:20:07;;;;;;;3.90;3.60;;;22.80;58.40;;;;;;5134587;27;20456;-40
2021/09/17 12:22:39;;;;;;;3.03;2.83;;;22.80;58.40;;;;;;5100315;27;20459;-41
2021/09/17 12:25:09;;;;;;;3.60;2.95;;;22.80;59.50;;;;;;5134240;27;20428;-42
2021/09/17 12:27:36;;;;;;;6.30;3.90;;;22.90;58.00;;;;;;5135578;27;20557;-41
2021/09/17 12:30:06;;;;;;;3.70;3.40;;;22.70;57.60;;;;;;5137290;27;20441;-40
2021/09/17 12:32:32;;;;;;;4.27;3.03;;;22.80;59.20;;;;;;5138105;27;20516;-42
2021/09/17 12:35:07;;;;;;;3.80;3.40;;;23.00;58.00;;;;;;5119886;27;20763;-42
2021/09/17 12:37:33;;;;;;;3.63;3.17;;;23.10;58.40;;;;;;5117438;27;20846;-40
2021/09/17 12:40:32;;;;;;;3.10;2.83;;;23.40;58.90;;;;;;5117884;27;20439;-43
2021/09/17 12:43:05;;;;;;;3.20;3.00;;;23.90;58.60;;;;;;5081582;27;20432;-41
2021/09/17 12:45:33;;;;;;;3.60;3.30;;;24.50;56.80;;;;;;5135140;27;20955;-44